Startpagina
METAR-TAF:

METAR-TAF

Vliegvelden :

San José, Costa Rica

breedte: 09-57N, lengte: 084-09W, hoogte: 994 m

Actueel weer

Dit bericht is 19 minuten geleden gemaakt, om 21:00 UTC
Wind 15 kt uit het oostnoordoosten met uitschieters tot 25 kt
Temperatuur 26°C
Vochtigheid 39%
Druk 1016 hPa
Zicht 10 km of meer
geen wolken onder 1500 m en geen cumulonimbus

METAR: MRPV 232100Z 07015G25KT CAVOK 26/11 A3000 NOSIG

Tijdstip: 15:19 (21:19 UTC)

Verwachting

Dit bericht is 4 uur en het 19 minuten geleden gemaakt, om 17:00 UTC
Verwachting geldig van 23 om 18 UTC tot 24 om 18 UTC
Wind 17 kt uit het oostzuidoosten
Zicht 10 km of meer
Weinig wolken op 4000 ft

TAF: MRPV 231700Z 2318/2418 11017KT 9999 FEW040 TX27/2319Z TN19/2411Z

Waarnemingen en weersverwachtingen van meer dan 4000 vliegvelden (METAR en TAF).

De beschikbare stations zijn de gele en rode punten op de kaart.

Ga met uw muis naar het station om de naam te zien.

Klik dan om waarnemingen en weersverwachtingen te zien.

kaart wijzigen: klik op de groene knoppen met een zwart kruis om in te zoomen, op de groene knop met een streepje om uit te zoomen of op de groene pijlen voor aangrenzende kaarten.


METAR-TAF: